<?xml version="1.0" encoding="utf-8"?>
<gpx xmlns:xsi="http://www.w3.org/2001/XMLSchema-instance" xmlns:xsd="http://www.w3.org/2001/XMLSchema" version="1.1" creator="Shapelink.com" xmlns="http://www.topografix.com/GPX/1/1" xmlns:gpxtpx="http://www.garmin.com/xmlschemas/TrackPointExtension/v1">
  <metadata>
    <name>Löpning 5.00 km, 2019-11-08</name>
    <desc></desc>
    <author><name>Bengt Norberg</name></author> 
    <time>2019-11-08T09:22:23Z</time>
  </metadata>
  <trk>
    <name>Löpning 5.00 km, 2019-11-08</name>
    <trkseg>
      <trkpt lat="59.819469672098" lon="16.985656571607">
        <ele>42.8</ele>
        <time>2019-11-08T09:22:23Z</time>
      </trkpt>
      <trkpt lat="59.819531698158" lon="16.986033170374">
        <ele>42.6</ele>
        <time>2019-11-08T09:22:31Z</time>
      </trkpt>
      <trkpt lat="59.819592886028" lon="16.986410858788">
        <ele>41.6</ele>
        <time>2019-11-08T09:22:39Z</time>
      </trkpt>
      <trkpt lat="59.819652732794" lon="16.986786870822">
        <ele>40.6</ele>
        <time>2019-11-08T09:22:47Z</time>
      </trkpt>
      <trkpt lat="59.819704700574" lon="16.98715668025">
        <ele>40</ele>
        <time>2019-11-08T09:22:55Z</time>
      </trkpt>
      <trkpt lat="59.819773264516" lon="16.987530261533">
        <ele>40.6</ele>
        <time>2019-11-08T09:23:03Z</time>
      </trkpt>
      <trkpt lat="59.819836044947" lon="16.987877691288">
        <ele>40.2</ele>
        <time>2019-11-08T09:23:11Z</time>
      </trkpt>
      <trkpt lat="59.81989781955" lon="16.988234173495">
        <ele>40.6</ele>
        <time>2019-11-08T09:23:19Z</time>
      </trkpt>
      <trkpt lat="59.819957666316" lon="16.988596942127">
        <ele>38.8</ele>
        <time>2019-11-08T09:23:27Z</time>
      </trkpt>
      <trkpt lat="59.8200109752" lon="16.988973121799">
        <ele>37.4</ele>
        <time>2019-11-08T09:23:35Z</time>
      </trkpt>
      <trkpt lat="59.820080042056" lon="16.989297836605">
        <ele>37.6</ele>
        <time>2019-11-08T09:23:43Z</time>
      </trkpt>
      <trkpt lat="59.820212224619" lon="16.989253244897">
        <ele>37.4</ele>
        <time>2019-11-08T09:23:49Z</time>
      </trkpt>
      <trkpt lat="59.820388076881" lon="16.989161379273">
        <ele>37.8</ele>
        <time>2019-11-08T09:23:57Z</time>
      </trkpt>
      <trkpt lat="59.82056585698" lon="16.989071525305">
        <ele>38</ele>
        <time>2019-11-08T09:24:05Z</time>
      </trkpt>
      <trkpt lat="59.820747241296" lon="16.988973708532">
        <ele>38.4</ele>
        <time>2019-11-08T09:24:13Z</time>
      </trkpt>
      <trkpt lat="59.820926865413" lon="16.988874550655">
        <ele>38.6</ele>
        <time>2019-11-08T09:24:21Z</time>
      </trkpt>
      <trkpt lat="59.821106154254" lon="16.988787546533">
        <ele>39.4</ele>
        <time>2019-11-08T09:24:29Z</time>
      </trkpt>
      <trkpt lat="59.821286448923" lon="16.988696519099">
        <ele>39.8</ele>
        <time>2019-11-08T09:24:37Z</time>
      </trkpt>
      <trkpt lat="59.821467917058" lon="16.988604569656">
        <ele>40.2</ele>
        <time>2019-11-08T09:24:45Z</time>
      </trkpt>
      <trkpt lat="59.821650558659" lon="16.988500382639">
        <ele>40.4</ele>
        <time>2019-11-08T09:24:53Z</time>
      </trkpt>
      <trkpt lat="59.821830182776" lon="16.988376162881">
        <ele>40.4</ele>
        <time>2019-11-08T09:25:01Z</time>
      </trkpt>
      <trkpt lat="59.822008801065" lon="16.98825638553">
        <ele>40.6</ele>
        <time>2019-11-08T09:25:09Z</time>
      </trkpt>
      <trkpt lat="59.822189263372" lon="16.988133506876">
        <ele>41</ele>
        <time>2019-11-08T09:25:17Z</time>
      </trkpt>
      <trkpt lat="59.822370647688" lon="16.988010460584">
        <ele>41.8</ele>
        <time>2019-11-08T09:25:25Z</time>
      </trkpt>
      <trkpt lat="59.822426722599" lon="16.988003671245">
        <ele>42.4</ele>
        <time>2019-11-08T09:25:28Z</time>
      </trkpt>
      <trkpt lat="59.822350279671" lon="16.988103415855">
        <ele>42.2</ele>
        <time>2019-11-08T09:25:32Z</time>
      </trkpt>
      <trkpt lat="59.822171996658" lon="16.988254960607">
        <ele>41.8</ele>
        <time>2019-11-08T09:25:39Z</time>
      </trkpt>
      <trkpt lat="59.822064792157" lon="16.988292762976">
        <ele>42.4</ele>
        <time>2019-11-08T09:25:44Z</time>
      </trkpt>
      <trkpt lat="59.822228406845" lon="16.988120850207">
        <ele>42.6</ele>
        <time>2019-11-08T09:25:52Z</time>
      </trkpt>
      <trkpt lat="59.822416999595" lon="16.987985398703">
        <ele>43.4</ele>
        <time>2019-11-08T09:26:00Z</time>
      </trkpt>
      <trkpt lat="59.822603580689" lon="16.987862520049">
        <ele>42.6</ele>
        <time>2019-11-08T09:26:08Z</time>
      </trkpt>
      <trkpt lat="59.822790999973" lon="16.987749532037">
        <ele>41.8</ele>
        <time>2019-11-08T09:26:16Z</time>
      </trkpt>
      <trkpt lat="59.822980598551" lon="16.987645596477">
        <ele>42.2</ele>
        <time>2019-11-08T09:26:24Z</time>
      </trkpt>
      <trkpt lat="59.823163491609" lon="16.987524561841">
        <ele>42.2</ele>
        <time>2019-11-08T09:26:32Z</time>
      </trkpt>
      <trkpt lat="59.823348061047" lon="16.987416351512">
        <ele>42.4</ele>
        <time>2019-11-08T09:26:40Z</time>
      </trkpt>
      <trkpt lat="59.823536318521" lon="16.987306129527">
        <ele>43.6</ele>
        <time>2019-11-08T09:26:48Z</time>
      </trkpt>
      <trkpt lat="59.823720468864" lon="16.987198505931">
        <ele>43.2</ele>
        <time>2019-11-08T09:26:56Z</time>
      </trkpt>
      <trkpt lat="59.823904619207" lon="16.987109154877">
        <ele>43.4</ele>
        <time>2019-11-08T09:27:04Z</time>
      </trkpt>
      <trkpt lat="59.824090194473" lon="16.987018211262">
        <ele>43.8</ele>
        <time>2019-11-08T09:27:12Z</time>
      </trkpt>
      <trkpt lat="59.824279709232" lon="16.986931039502">
        <ele>43.6</ele>
        <time>2019-11-08T09:27:20Z</time>
      </trkpt>
      <trkpt lat="59.82447182238" lon="16.986836994584">
        <ele>44</ele>
        <time>2019-11-08T09:27:28Z</time>
      </trkpt>
      <trkpt lat="59.824666953012" lon="16.986743536399">
        <ele>44</ele>
        <time>2019-11-08T09:27:36Z</time>
      </trkpt>
      <trkpt lat="59.824861832187" lon="16.986668602213">
        <ele>44</ele>
        <time>2019-11-08T09:27:44Z</time>
      </trkpt>
      <trkpt lat="59.825048916195" lon="16.986571539811">
        <ele>44.4</ele>
        <time>2019-11-08T09:27:52Z</time>
      </trkpt>
      <trkpt lat="59.825238347135" lon="16.986467604251">
        <ele>44.2</ele>
        <time>2019-11-08T09:28:00Z</time>
      </trkpt>
      <trkpt lat="59.825425179686" lon="16.986339361181">
        <ele>45.2</ele>
        <time>2019-11-08T09:28:08Z</time>
      </trkpt>
      <trkpt lat="59.82561427535" lon="16.986219500011">
        <ele>44.6</ele>
        <time>2019-11-08T09:28:16Z</time>
      </trkpt>
      <trkpt lat="59.825803119557" lon="16.986106847275">
        <ele>44.4</ele>
        <time>2019-11-08T09:28:24Z</time>
      </trkpt>
      <trkpt lat="59.826088187976" lon="16.985945076605">
        <ele>43.4</ele>
        <time>2019-11-08T09:28:36Z</time>
      </trkpt>
      <trkpt lat="59.826275355803" lon="16.985830160756">
        <ele>44.2</ele>
        <time>2019-11-08T09:28:44Z</time>
      </trkpt>
      <trkpt lat="59.826435366274" lon="16.98566386386">
        <ele>44.4</ele>
        <time>2019-11-08T09:28:52Z</time>
      </trkpt>
      <trkpt lat="59.826440227776" lon="16.985617595772">
        <ele>44.6</ele>
        <time>2019-11-08T09:28:53Z</time>
      </trkpt>
      <trkpt lat="59.826403934149" lon="16.985227502146">
        <ele>46.4</ele>
        <time>2019-11-08T09:29:02Z</time>
      </trkpt>
      <trkpt lat="59.826349619437" lon="16.984853501768">
        <ele>46.6</ele>
        <time>2019-11-08T09:29:11Z</time>
      </trkpt>
      <trkpt lat="59.826324641375" lon="16.984467515273">
        <ele>46.6</ele>
        <time>2019-11-08T09:29:19Z</time>
      </trkpt>
      <trkpt lat="59.826298908942" lon="16.984099885139">
        <ele>45</ele>
        <time>2019-11-08T09:29:27Z</time>
      </trkpt>
      <trkpt lat="59.826269823749" lon="16.983742564742">
        <ele>43.6</ele>
        <time>2019-11-08T09:29:35Z</time>
      </trkpt>
      <trkpt lat="59.826235290321" lon="16.983370240744">
        <ele>42.2</ele>
        <time>2019-11-08T09:29:43Z</time>
      </trkpt>
      <trkpt lat="59.826211737182" lon="16.982980566213">
        <ele>42</ele>
        <time>2019-11-08T09:29:51Z</time>
      </trkpt>
      <trkpt lat="59.826201259807" lon="16.982611343518">
        <ele>42</ele>
        <time>2019-11-08T09:29:59Z</time>
      </trkpt>
      <trkpt lat="59.82617586265" lon="16.982236756407">
        <ele>42.2</ele>
        <time>2019-11-08T09:30:07Z</time>
      </trkpt>
      <trkpt lat="59.826147448009" lon="16.981866192608">
        <ele>42.8</ele>
        <time>2019-11-08T09:30:15Z</time>
      </trkpt>
      <trkpt lat="59.826116854074" lon="16.981494371524">
        <ele>43.4</ele>
        <time>2019-11-08T09:30:23Z</time>
      </trkpt>
      <trkpt lat="59.826080895723" lon="16.981106792468">
        <ele>44.8</ele>
        <time>2019-11-08T09:30:31Z</time>
      </trkpt>
      <trkpt lat="59.826048373951" lon="16.980715693014">
        <ele>46.4</ele>
        <time>2019-11-08T09:30:39Z</time>
      </trkpt>
      <trkpt lat="59.826016103636" lon="16.980346554138">
        <ele>47.4</ele>
        <time>2019-11-08T09:30:47Z</time>
      </trkpt>
      <trkpt lat="59.825981067294" lon="16.979949335897">
        <ele>47.2</ele>
        <time>2019-11-08T09:30:56Z</time>
      </trkpt>
      <trkpt lat="59.825954999585" lon="16.979555554235">
        <ele>47.8</ele>
        <time>2019-11-08T09:31:04Z</time>
      </trkpt>
      <trkpt lat="59.825928009867" lon="16.979195216354">
        <ele>48.8</ele>
        <time>2019-11-08T09:31:12Z</time>
      </trkpt>
      <trkpt lat="59.825944689848" lon="16.978824820193">
        <ele>49.8</ele>
        <time>2019-11-08T09:31:20Z</time>
      </trkpt>
      <trkpt lat="59.826037393662" lon="16.978746449428">
        <ele>50.2</ele>
        <time>2019-11-08T09:31:24Z</time>
      </trkpt>
      <trkpt lat="59.826221627824" lon="16.978642430049">
        <ele>49.6</ele>
        <time>2019-11-08T09:31:32Z</time>
      </trkpt>
      <trkpt lat="59.826400246113" lon="16.978520473404">
        <ele>48.8</ele>
        <time>2019-11-08T09:31:40Z</time>
      </trkpt>
      <trkpt lat="59.826581630429" lon="16.978418884776">
        <ele>46.8</ele>
        <time>2019-11-08T09:31:48Z</time>
      </trkpt>
      <trkpt lat="59.826763014745" lon="16.978325342772">
        <ele>46.6</ele>
        <time>2019-11-08T09:31:56Z</time>
      </trkpt>
      <trkpt lat="59.826941297758" lon="16.978192154381">
        <ele>47.6</ele>
        <time>2019-11-08T09:32:04Z</time>
      </trkpt>
      <trkpt lat="59.827124609911" lon="16.978103222422">
        <ele>47.8</ele>
        <time>2019-11-08T09:32:12Z</time>
      </trkpt>
      <trkpt lat="59.827312951204" lon="16.97799693993">
        <ele>48</ele>
        <time>2019-11-08T09:32:20Z</time>
      </trkpt>
      <trkpt lat="59.827501795411" lon="16.97789216618">
        <ele>47.6</ele>
        <time>2019-11-08T09:32:28Z</time>
      </trkpt>
      <trkpt lat="59.827683934098" lon="16.977769287526">
        <ele>48.4</ele>
        <time>2019-11-08T09:32:36Z</time>
      </trkpt>
      <trkpt lat="59.827856014505" lon="16.977609193236">
        <ele>48</ele>
        <time>2019-11-08T09:32:44Z</time>
      </trkpt>
      <trkpt lat="59.82802490979" lon="16.977451110602">
        <ele>47.6</ele>
        <time>2019-11-08T09:32:52Z</time>
      </trkpt>
      <trkpt lat="59.828165977167" lon="16.977337871133">
        <ele>46.4</ele>
        <time>2019-11-08T09:32:59Z</time>
      </trkpt>
      <trkpt lat="59.828098754329" lon="16.977479609062">
        <ele>44.8</ele>
        <time>2019-11-08T09:33:04Z</time>
      </trkpt>
      <trkpt lat="59.827950813794" lon="16.977713883167">
        <ele>46.2</ele>
        <time>2019-11-08T09:33:11Z</time>
      </trkpt>
      <trkpt lat="59.827781667052" lon="16.977885963574">
        <ele>46</ele>
        <time>2019-11-08T09:33:18Z</time>
      </trkpt>
      <trkpt lat="59.827605144238" lon="16.978051003185">
        <ele>46</ele>
        <time>2019-11-08T09:33:26Z</time>
      </trkpt>
      <trkpt lat="59.827417389678" lon="16.978160051704">
        <ele>46</ele>
        <time>2019-11-08T09:33:34Z</time>
      </trkpt>
      <trkpt lat="59.827242207968" lon="16.978265831282">
        <ele>46.2</ele>
        <time>2019-11-08T09:33:42Z</time>
      </trkpt>
      <trkpt lat="59.827062751489" lon="16.97836490534">
        <ele>47.2</ele>
        <time>2019-11-08T09:33:50Z</time>
      </trkpt>
      <trkpt lat="59.826883797924" lon="16.978466996882">
        <ele>47</ele>
        <time>2019-11-08T09:33:58Z</time>
      </trkpt>
      <trkpt lat="59.82670224597" lon="16.978568334053">
        <ele>47.4</ele>
        <time>2019-11-08T09:34:06Z</time>
      </trkpt>
      <trkpt lat="59.826522538034" lon="16.978668833034">
        <ele>47.8</ele>
        <time>2019-11-08T09:34:14Z</time>
      </trkpt>
      <trkpt lat="59.82634433884" lon="16.97874376722">
        <ele>46.8</ele>
        <time>2019-11-08T09:34:22Z</time>
      </trkpt>
      <trkpt lat="59.826169827682" lon="16.978843428011">
        <ele>47.2</ele>
        <time>2019-11-08T09:34:29Z</time>
      </trkpt>
      <trkpt lat="59.82597553524" lon="16.978931437961">
        <ele>47</ele>
        <time>2019-11-08T09:34:37Z</time>
      </trkpt>
      <trkpt lat="59.825928177505" lon="16.979000337179">
        <ele>45.4</ele>
        <time>2019-11-08T09:34:40Z</time>
      </trkpt>
      <trkpt lat="59.82593194936" lon="16.979168813369">
        <ele>44.4</ele>
        <time>2019-11-08T09:34:44Z</time>
      </trkpt>
      <trkpt lat="59.825988527185" lon="16.979610958594">
        <ele>42.4</ele>
        <time>2019-11-08T09:34:54Z</time>
      </trkpt>
      <trkpt lat="59.826031107237" lon="16.979993759967">
        <ele>43.2</ele>
        <time>2019-11-08T09:35:02Z</time>
      </trkpt>
      <trkpt lat="59.826063126095" lon="16.980370945467">
        <ele>43.2</ele>
        <time>2019-11-08T09:35:10Z</time>
      </trkpt>
      <trkpt lat="59.826082739741" lon="16.980745113483">
        <ele>43.4</ele>
        <time>2019-11-08T09:35:18Z</time>
      </trkpt>
      <trkpt lat="59.826115177694" lon="16.98112925596">
        <ele>42.6</ele>
        <time>2019-11-08T09:35:26Z</time>
      </trkpt>
      <trkpt lat="59.826131941494" lon="16.981516248283">
        <ele>42.4</ele>
        <time>2019-11-08T09:35:34Z</time>
      </trkpt>
      <trkpt lat="59.826154488805" lon="16.981895864534">
        <ele>41</ele>
        <time>2019-11-08T09:35:42Z</time>
      </trkpt>
      <trkpt lat="59.826181394704" lon="16.982280845201">
        <ele>39.4</ele>
        <time>2019-11-08T09:35:50Z</time>
      </trkpt>
      <trkpt lat="59.826204864024" lon="16.982635567209">
        <ele>39.2</ele>
        <time>2019-11-08T09:35:57Z</time>
      </trkpt>
      <trkpt lat="59.826243001669" lon="16.983029935604">
        <ele>41.4</ele>
        <time>2019-11-08T09:36:05Z</time>
      </trkpt>
      <trkpt lat="59.826276277812" lon="16.983409048941">
        <ele>41.8</ele>
        <time>2019-11-08T09:36:13Z</time>
      </trkpt>
      <trkpt lat="59.826314499276" lon="16.983804674621">
        <ele>41.4</ele>
        <time>2019-11-08T09:36:21Z</time>
      </trkpt>
      <trkpt lat="59.826337800958" lon="16.984186889261">
        <ele>40.6</ele>
        <time>2019-11-08T09:36:29Z</time>
      </trkpt>
      <trkpt lat="59.826366047961" lon="16.984556111956">
        <ele>39.8</ele>
        <time>2019-11-08T09:36:37Z</time>
      </trkpt>
      <trkpt lat="59.826396138982" lon="16.984927430126">
        <ele>40.6</ele>
        <time>2019-11-08T09:36:45Z</time>
      </trkpt>
      <trkpt lat="59.826422877243" lon="16.985286510722">
        <ele>39.8</ele>
        <time>2019-11-08T09:36:53Z</time>
      </trkpt>
      <trkpt lat="59.826443329079" lon="16.985656487788">
        <ele>39</ele>
        <time>2019-11-08T09:37:01Z</time>
      </trkpt>
      <trkpt lat="59.826482724009" lon="16.985837285371">
        <ele>38.8</ele>
        <time>2019-11-08T09:37:06Z</time>
      </trkpt>
      <trkpt lat="59.826578445307" lon="16.985871399704">
        <ele>39.4</ele>
        <time>2019-11-08T09:37:10Z</time>
      </trkpt>
      <trkpt lat="59.826761589822" lon="16.985906436046">
        <ele>39.2</ele>
        <time>2019-11-08T09:37:17Z</time>
      </trkpt>
      <trkpt lat="59.826945153432" lon="16.985931162651">
        <ele>40.6</ele>
        <time>2019-11-08T09:37:24Z</time>
      </trkpt>
      <trkpt lat="59.827129806689" lon="16.985978352748">
        <ele>39.4</ele>
        <time>2019-11-08T09:37:31Z</time>
      </trkpt>
      <trkpt lat="59.827330972289" lon="16.985968629744">
        <ele>38.4</ele>
        <time>2019-11-08T09:37:39Z</time>
      </trkpt>
      <trkpt lat="59.827518894487" lon="16.985853881533">
        <ele>37.4</ele>
        <time>2019-11-08T09:37:47Z</time>
      </trkpt>
      <trkpt lat="59.827689885247" lon="16.985675849977">
        <ele>37.2</ele>
        <time>2019-11-08T09:37:55Z</time>
      </trkpt>
      <trkpt lat="59.827851991193" lon="16.985453897265">
        <ele>38</ele>
        <time>2019-11-08T09:38:03Z</time>
      </trkpt>
      <trkpt lat="59.828009990008" lon="16.985238985349">
        <ele>39.8</ele>
        <time>2019-11-08T09:38:11Z</time>
      </trkpt>
      <trkpt lat="59.828185674632" lon="16.985038490301">
        <ele>39.8</ele>
        <time>2019-11-08T09:38:19Z</time>
      </trkpt>
      <trkpt lat="59.82835767122" lon="16.984843359669">
        <ele>40.6</ele>
        <time>2019-11-08T09:38:27Z</time>
      </trkpt>
      <trkpt lat="59.8285353675" lon="16.984676978954">
        <ele>40.6</ele>
        <time>2019-11-08T09:38:35Z</time>
      </trkpt>
      <trkpt lat="59.828701580577" lon="16.984516130293">
        <ele>40.8</ele>
        <time>2019-11-08T09:38:43Z</time>
      </trkpt>
      <trkpt lat="59.82884801237" lon="16.984292417382">
        <ele>39</ele>
        <time>2019-11-08T09:38:51Z</time>
      </trkpt>
      <trkpt lat="59.828981452218" lon="16.984018413071">
        <ele>40.2</ele>
        <time>2019-11-08T09:38:59Z</time>
      </trkpt>
      <trkpt lat="59.829099720827" lon="16.98372596858">
        <ele>40.4</ele>
        <time>2019-11-08T09:39:07Z</time>
      </trkpt>
      <trkpt lat="59.829219833454" lon="16.983440900161">
        <ele>40</ele>
        <time>2019-11-08T09:39:15Z</time>
      </trkpt>
      <trkpt lat="59.829346986877" lon="16.983150802602">
        <ele>41.6</ele>
        <time>2019-11-08T09:39:23Z</time>
      </trkpt>
      <trkpt lat="59.829472212463" lon="16.982829608194">
        <ele>42.2</ele>
        <time>2019-11-08T09:39:31Z</time>
      </trkpt>
      <trkpt lat="59.829614201849" lon="16.98257345733">
        <ele>40.8</ele>
        <time>2019-11-08T09:39:39Z</time>
      </trkpt>
      <trkpt lat="59.829773625587" lon="16.982354941197">
        <ele>40.4</ele>
        <time>2019-11-08T09:39:47Z</time>
      </trkpt>
      <trkpt lat="59.829938162284" lon="16.982173221605">
        <ele>40.2</ele>
        <time>2019-11-08T09:39:55Z</time>
      </trkpt>
      <trkpt lat="59.830094987633" lon="16.981987478701">
        <ele>40.2</ele>
        <time>2019-11-08T09:40:03Z</time>
      </trkpt>
      <trkpt lat="59.830256087751" lon="16.981821014167">
        <ele>40</ele>
        <time>2019-11-08T09:40:11Z</time>
      </trkpt>
      <trkpt lat="59.830425988864" lon="16.981641222412">
        <ele>40.4</ele>
        <time>2019-11-08T09:40:19Z</time>
      </trkpt>
      <trkpt lat="59.830596979624" lon="16.981468555272">
        <ele>40.6</ele>
        <time>2019-11-08T09:40:27Z</time>
      </trkpt>
      <trkpt lat="59.830765204357" lon="16.981296810141">
        <ele>40.4</ele>
        <time>2019-11-08T09:40:35Z</time>
      </trkpt>
      <trkpt lat="59.830928902864" lon="16.981110312866">
        <ele>40.8</ele>
        <time>2019-11-08T09:40:43Z</time>
      </trkpt>
      <trkpt lat="59.831096373226" lon="16.980925827247">
        <ele>41.4</ele>
        <time>2019-11-08T09:40:51Z</time>
      </trkpt>
      <trkpt lat="59.831396780522" lon="16.980579151863">
        <ele>41.4</ele>
        <time>2019-11-08T09:41:06Z</time>
      </trkpt>
      <trkpt lat="59.831559808477" lon="16.980407322913">
        <ele>41.6</ele>
        <time>2019-11-08T09:41:14Z</time>
      </trkpt>
      <trkpt lat="59.831726021554" lon="16.980263154233">
        <ele>41.6</ele>
        <time>2019-11-08T09:41:22Z</time>
      </trkpt>
      <trkpt lat="59.831898521056" lon="16.980137761009">
        <ele>42</ele>
        <time>2019-11-08T09:41:30Z</time>
      </trkpt>
      <trkpt lat="59.832073954223" lon="16.98001697783">
        <ele>42</ele>
        <time>2019-11-08T09:41:38Z</time>
      </trkpt>
      <trkpt lat="59.832256176729" lon="16.979919244876">
        <ele>42.8</ele>
        <time>2019-11-08T09:41:47Z</time>
      </trkpt>
      <trkpt lat="59.83244384747" lon="16.979830480555">
        <ele>43.8</ele>
        <time>2019-11-08T09:41:56Z</time>
      </trkpt>
      <trkpt lat="59.832625650881" lon="16.979748924668">
        <ele>44.4</ele>
        <time>2019-11-08T09:42:05Z</time>
      </trkpt>
      <trkpt lat="59.83272380293" lon="16.979589081835">
        <ele>44.8</ele>
        <time>2019-11-08T09:42:12Z</time>
      </trkpt>
      <trkpt lat="59.832688850407" lon="16.979725790624">
        <ele>42.6</ele>
        <time>2019-11-08T09:43:58Z</time>
      </trkpt>
      <trkpt lat="59.832526744461" lon="16.979896865203">
        <ele>42.6</ele>
        <time>2019-11-08T09:44:06Z</time>
      </trkpt>
      <trkpt lat="59.832335469503" lon="16.979965596783">
        <ele>43.4</ele>
        <time>2019-11-08T09:44:13Z</time>
      </trkpt>
      <trkpt lat="59.832145703287" lon="16.980055366932">
        <ele>42.4</ele>
        <time>2019-11-08T09:44:20Z</time>
      </trkpt>
      <trkpt lat="59.831956691442" lon="16.980169193134">
        <ele>41.8</ele>
        <time>2019-11-08T09:44:27Z</time>
      </trkpt>
      <trkpt lat="59.831773379289" lon="16.980301459516">
        <ele>41.8</ele>
        <time>2019-11-08T09:44:34Z</time>
      </trkpt>
      <trkpt lat="59.83160565747" lon="16.980434228812">
        <ele>41.6</ele>
        <time>2019-11-08T09:44:41Z</time>
      </trkpt>
      <trkpt lat="59.831435421081" lon="16.980617457146">
        <ele>41.2</ele>
        <time>2019-11-08T09:44:49Z</time>
      </trkpt>
      <trkpt lat="59.831270716746" lon="16.980823651886">
        <ele>42.4</ele>
        <time>2019-11-08T09:44:56Z</time>
      </trkpt>
      <trkpt lat="59.831114059035" lon="16.981026745323">
        <ele>44</ele>
        <time>2019-11-08T09:45:03Z</time>
      </trkpt>
      <trkpt lat="59.830957820419" lon="16.981213577874">
        <ele>43.2</ele>
        <time>2019-11-08T09:45:10Z</time>
      </trkpt>
      <trkpt lat="59.830795463016" lon="16.981391525611">
        <ele>41.8</ele>
        <time>2019-11-08T09:45:17Z</time>
      </trkpt>
      <trkpt lat="59.830620532763" lon="16.981583722578">
        <ele>41.6</ele>
        <time>2019-11-08T09:45:25Z</time>
      </trkpt>
      <trkpt lat="59.830453565315" lon="16.981790504051">
        <ele>39.4</ele>
        <time>2019-11-08T09:45:33Z</time>
      </trkpt>
      <trkpt lat="59.830278132148" lon="16.981987227244">
        <ele>39.4</ele>
        <time>2019-11-08T09:45:41Z</time>
      </trkpt>
      <trkpt lat="59.830122564084" lon="16.982172718691">
        <ele>40.8</ele>
        <time>2019-11-08T09:45:48Z</time>
      </trkpt>
      <trkpt lat="59.829964816726" lon="16.982345888745">
        <ele>40.8</ele>
        <time>2019-11-08T09:45:55Z</time>
      </trkpt>
      <trkpt lat="59.829794412699" lon="16.982547724897">
        <ele>40</ele>
        <time>2019-11-08T09:46:03Z</time>
      </trkpt>
      <trkpt lat="59.829640185739" lon="16.982743861357">
        <ele>40.4</ele>
        <time>2019-11-08T09:46:10Z</time>
      </trkpt>
      <trkpt lat="59.829495178869" lon="16.982991630321">
        <ele>38.6</ele>
        <time>2019-11-08T09:46:18Z</time>
      </trkpt>
      <trkpt lat="59.829373976595" lon="16.983277872206">
        <ele>37.8</ele>
        <time>2019-11-08T09:46:26Z</time>
      </trkpt>
      <trkpt lat="59.829250175932" lon="16.983564449367">
        <ele>36.8</ele>
        <time>2019-11-08T09:46:34Z</time>
      </trkpt>
      <trkpt lat="59.829125537079" lon="16.983871310726">
        <ele>37.6</ele>
        <time>2019-11-08T09:46:42Z</time>
      </trkpt>
      <trkpt lat="59.828994611801" lon="16.984158055525">
        <ele>37.2</ele>
        <time>2019-11-08T09:46:50Z</time>
      </trkpt>
      <trkpt lat="59.828847090361" lon="16.984436502243">
        <ele>38</ele>
        <time>2019-11-08T09:46:58Z</time>
      </trkpt>
      <trkpt lat="59.828699736559" lon="16.984653928729">
        <ele>38.2</ele>
        <time>2019-11-08T09:47:05Z</time>
      </trkpt>
      <trkpt lat="59.828539139355" lon="16.98483657033">
        <ele>38.2</ele>
        <time>2019-11-08T09:47:12Z</time>
      </trkpt>
      <trkpt lat="59.82837359683" lon="16.984992725127">
        <ele>39.4</ele>
        <time>2019-11-08T09:47:19Z</time>
      </trkpt>
      <trkpt lat="59.828216939119" lon="16.985178048936">
        <ele>40</ele>
        <time>2019-11-08T09:47:26Z</time>
      </trkpt>
      <trkpt lat="59.828040164848" lon="16.985352979189">
        <ele>40.6</ele>
        <time>2019-11-08T09:47:34Z</time>
      </trkpt>
      <trkpt lat="59.827870850468" lon="16.985560179757">
        <ele>39</ele>
        <time>2019-11-08T09:47:42Z</time>
      </trkpt>
      <trkpt lat="59.827717461698" lon="16.985752879638">
        <ele>38</ele>
        <time>2019-11-08T09:47:49Z</time>
      </trkpt>
      <trkpt lat="59.827556110123" lon="16.9859287319">
        <ele>40</ele>
        <time>2019-11-08T09:47:56Z</time>
      </trkpt>
      <trkpt lat="59.827389729408" lon="16.986081785394">
        <ele>41.6</ele>
        <time>2019-11-08T09:48:03Z</time>
      </trkpt>
      <trkpt lat="59.82720180721" lon="16.986118917211">
        <ele>39.2</ele>
        <time>2019-11-08T09:48:11Z</time>
      </trkpt>
      <trkpt lat="59.827021680179" lon="16.986075918064">
        <ele>39.4</ele>
        <time>2019-11-08T09:48:19Z</time>
      </trkpt>
      <trkpt lat="59.826843145709" lon="16.986004420457">
        <ele>39.8</ele>
        <time>2019-11-08T09:48:27Z</time>
      </trkpt>
      <trkpt lat="59.826662264307" lon="16.985926552606">
        <ele>38.8</ele>
        <time>2019-11-08T09:48:35Z</time>
      </trkpt>
      <trkpt lat="59.826479455068" lon="16.985886235667">
        <ele>37.2</ele>
        <time>2019-11-08T09:48:43Z</time>
      </trkpt>
      <trkpt lat="59.826158679755" lon="16.98601003633">
        <ele>35.2</ele>
        <time>2019-11-08T09:48:56Z</time>
      </trkpt>
      <trkpt lat="59.825971847204" lon="16.986133753174">
        <ele>37.4</ele>
        <time>2019-11-08T09:49:04Z</time>
      </trkpt>
      <trkpt lat="59.825789289422" lon="16.986235006526">
        <ele>37.4</ele>
        <time>2019-11-08T09:49:12Z</time>
      </trkpt>
      <trkpt lat="59.825597595369" lon="16.986329470539">
        <ele>37.2</ele>
        <time>2019-11-08T09:49:20Z</time>
      </trkpt>
      <trkpt lat="59.825404560212" lon="16.986423180181">
        <ele>36.6</ele>
        <time>2019-11-08T09:49:28Z</time>
      </trkpt>
      <trkpt lat="59.825215883643" lon="16.986524936447">
        <ele>36</ele>
        <time>2019-11-08T09:49:36Z</time>
      </trkpt>
      <trkpt lat="59.825044641426" lon="16.986636583355">
        <ele>35.8</ele>
        <time>2019-11-08T09:49:43Z</time>
      </trkpt>
      <trkpt lat="59.824853115011" lon="16.98674512896">
        <ele>37.4</ele>
        <time>2019-11-08T09:49:51Z</time>
      </trkpt>
      <trkpt lat="59.824679609681" lon="16.986844119199">
        <ele>39.2</ele>
        <time>2019-11-08T09:49:58Z</time>
      </trkpt>
      <trkpt lat="59.82449110075" lon="16.986942187429">
        <ele>39.6</ele>
        <time>2019-11-08T09:50:06Z</time>
      </trkpt>
      <trkpt lat="59.824306363674" lon="16.987053331423">
        <ele>39.2</ele>
        <time>2019-11-08T09:50:14Z</time>
      </trkpt>
      <trkpt lat="59.824130259955" lon="16.987130780179">
        <ele>39.4</ele>
        <time>2019-11-08T09:50:21Z</time>
      </trkpt>
      <trkpt lat="59.823937560074" lon="16.987220550328">
        <ele>39.2</ele>
        <time>2019-11-08T09:50:29Z</time>
      </trkpt>
      <trkpt lat="59.823759947613" lon="16.987315517255">
        <ele>38.8</ele>
        <time>2019-11-08T09:50:36Z</time>
      </trkpt>
      <trkpt lat="59.823571354863" lon="16.987418782263">
        <ele>37</ele>
        <time>2019-11-08T09:50:44Z</time>
      </trkpt>
      <trkpt lat="59.823391311651" lon="16.987549372265">
        <ele>36.8</ele>
        <time>2019-11-08T09:50:52Z</time>
      </trkpt>
      <trkpt lat="59.823204898195" lon="16.987669736349">
        <ele>38.6</ele>
        <time>2019-11-08T09:51:00Z</time>
      </trkpt>
      <trkpt lat="59.823026447544" lon="16.987781886171">
        <ele>40</ele>
        <time>2019-11-08T09:51:07Z</time>
      </trkpt>
      <trkpt lat="59.82284489559" lon="16.987884648265">
        <ele>39.4</ele>
        <time>2019-11-08T09:51:14Z</time>
      </trkpt>
      <trkpt lat="59.822654039727" lon="16.987992942413">
        <ele>38</ele>
        <time>2019-11-08T09:51:22Z</time>
      </trkpt>
      <trkpt lat="59.822458825276" lon="16.988101571837">
        <ele>37.4</ele>
        <time>2019-11-08T09:51:30Z</time>
      </trkpt>
      <trkpt lat="59.822272998553" lon="16.98818597757">
        <ele>36.4</ele>
        <time>2019-11-08T09:51:37Z</time>
      </trkpt>
      <trkpt lat="59.822087507106" lon="16.988277005004">
        <ele>34</ele>
        <time>2019-11-08T09:51:45Z</time>
      </trkpt>
      <trkpt lat="59.821899165813" lon="16.988392842862">
        <ele>32.8</ele>
        <time>2019-11-08T09:51:53Z</time>
      </trkpt>
      <trkpt lat="59.821722894456" lon="16.988510943833">
        <ele>33</ele>
        <time>2019-11-08T09:52:00Z</time>
      </trkpt>
      <trkpt lat="59.821550478773" lon="16.988632062288">
        <ele>34.8</ele>
        <time>2019-11-08T09:52:07Z</time>
      </trkpt>
      <trkpt lat="59.821355767236" lon="16.988742451911">
        <ele>35.4</ele>
        <time>2019-11-08T09:52:15Z</time>
      </trkpt>
      <trkpt lat="59.821158038215" lon="16.988840436322">
        <ele>34.4</ele>
        <time>2019-11-08T09:52:23Z</time>
      </trkpt>
      <trkpt lat="59.82097992284" lon="16.988922076028">
        <ele>34</ele>
        <time>2019-11-08T09:52:30Z</time>
      </trkpt>
      <trkpt lat="59.820779846887" lon="16.989008074322">
        <ele>34.2</ele>
        <time>2019-11-08T09:52:38Z</time>
      </trkpt>
      <trkpt lat="59.820599133123" lon="16.989089043476">
        <ele>34.2</ele>
        <time>2019-11-08T09:52:45Z</time>
      </trkpt>
      <trkpt lat="59.820421185386" lon="16.98919012919">
        <ele>34.2</ele>
        <time>2019-11-08T09:52:52Z</time>
      </trkpt>
      <trkpt lat="59.820240303984" lon="16.989272020353">
        <ele>34.4</ele>
        <time>2019-11-08T09:52:59Z</time>
      </trkpt>
      <trkpt lat="59.820058165297" lon="16.989360952312">
        <ele>35</ele>
        <time>2019-11-08T09:53:06Z</time>
      </trkpt>
      <trkpt lat="59.820035617986" lon="16.989349804385">
        <ele>35.2</ele>
        <time>2019-11-08T09:53:07Z</time>
      </trkpt>
      <trkpt lat="59.819987254423" lon="16.989235223812">
        <ele>34.4</ele>
        <time>2019-11-08T09:53:10Z</time>
      </trkpt>
      <trkpt lat="59.819952385719" lon="16.989016540041">
        <ele>33.6</ele>
        <time>2019-11-08T09:53:14Z</time>
      </trkpt>
      <trkpt lat="59.819886001071" lon="16.988669026467">
        <ele>34.2</ele>
        <time>2019-11-08T09:53:21Z</time>
      </trkpt>
      <trkpt lat="59.819811653618" lon="16.988323105454">
        <ele>33.8</ele>
        <time>2019-11-08T09:53:28Z</time>
      </trkpt>
      <trkpt lat="59.819745688065" lon="16.987990176386">
        <ele>33.8</ele>
        <time>2019-11-08T09:53:35Z</time>
      </trkpt>
      <trkpt lat="59.819677543218" lon="16.98765624149">
        <ele>33.4</ele>
        <time>2019-11-08T09:53:42Z</time>
      </trkpt>
      <trkpt lat="59.819629347293" lon="16.987265728769">
        <ele>32</ele>
        <time>2019-11-08T09:53:50Z</time>
      </trkpt>
      <trkpt lat="59.819570673993" lon="16.986887118346">
        <ele>31.8</ele>
        <time>2019-11-08T09:53:58Z</time>
      </trkpt>
      <trkpt lat="59.819510827227" lon="16.986527702474">
        <ele>32.4</ele>
        <time>2019-11-08T09:54:06Z</time>
      </trkpt>
      <trkpt lat="59.819460452008" lon="16.986141715979">
        <ele>33.4</ele>
        <time>2019-11-08T09:54:14Z</time>
      </trkpt>
      <trkpt lat="59.819386691288" lon="16.985777103329">
        <ele>34.4</ele>
        <time>2019-11-08T09:54:21Z</time>
      </trkpt>
      <trkpt lat="59.8193236594" lon="16.985416346353">
        <ele>34.8</ele>
        <time>2019-11-08T09:54:28Z</time>
      </trkpt>
      <trkpt lat="59.819159877074" lon="16.985314925363">
        <ele>34.4</ele>
        <time>2019-11-08T09:54:36Z</time>
      </trkpt>
      <trkpt lat="59.819022497733" lon="16.985459680776">
        <ele>32.6</ele>
        <time>2019-11-08T09:54:42Z</time>
      </trkpt>
    </trkseg>
  </trk>
</gpx>